sensor_id;sensor_type;location;lat;lon;timestamp;temperature;humidity
18101;DHT22;9177;49.156;8.142;2022-11-15T00:00:05;18.70;99.90
18101;DHT22;9177;49.156;8.142;2022-11-15T00:02:32;18.70;99.90
18101;DHT22;9177;49.156;8.142;2022-11-15T00:04:59;18.70;99.90
18101;DHT22;9177;49.156;8.142;2022-11-15T00:07:27;18.70;99.90
18101;DHT22;9177;49.156;8.142;2022-11-15T00:09:54;18.70;99.90
18101;DHT22;9177;49.156;8.142;2022-11-15T00:12:21;18.70;99.90
18101;DHT22;9177;49.156;8.142;2022-11-15T00:14:48;18.70;99.90
18101;DHT22;9177;49.156;8.142;2022-11-15T00:17:15;18.70;99.90
18101;DHT22;9177;49.156;8.142;2022-11-15T00:19:41;18.70;99.90
18101;DHT22;9177;49.156;8.142;2022-11-15T00:22:08;18.70;99.90
18101;DHT22;9177;49.156;8.142;2022-11-15T00:24:37;18.70;99.90
18101;DHT22;9177;49.156;8.142;2022-11-15T00:27:03;18.70;99.90
18101;DHT22;9177;49.156;8.142;2022-11-15T00:29:30;18.70;99.90
18101;DHT22;9177;49.156;8.142;2022-11-15T00:31:57;18.70;99.90
18101;DHT22;9177;49.156;8.142;2022-11-15T00:34:24;18.70;99.90
18101;DHT22;9177;49.156;8.142;2022-11-15T00:36:51;18.60;99.90
18101;DHT22;9177;49.156;8.142;2022-11-15T00:39:18;18.70;99.90
18101;DHT22;9177;49.156;8.142;2022-11-15T00:41:46;18.60;99.90
18101;DHT22;9177;49.156;8.142;2022-11-15T00:44:13;18.70;99.90
18101;DHT22;9177;49.156;8.142;2022-11-15T00:46:40;18.70;99.90
18101;DHT22;9177;49.156;8.142;2022-11-15T00:49:06;18.60;99.90
18101;DHT22;9177;49.156;8.142;2022-11-15T00:51:33;18.60;99.90
18101;DHT22;9177;49.156;8.142;2022-11-15T00:54:00;18.70;99.90
18101;DHT22;9177;49.156;8.142;2022-11-15T00:56:27;18.60;99.90
18101;DHT22;9177;49.156;8.142;2022-11-15T00:58:55;18.60;99.90
18101;DHT22;9177;49.156;8.142;2022-11-15T01:01:23;18.60;99.90
18101;DHT22;9177;49.156;8.142;2022-11-15T01:03:50;18.70;99.90
18101;DHT22;9177;49.156;8.142;2022-11-15T01:06:17;18.60;99.90
18101;DHT22;9177;49.156;8.142;2022-11-15T01:08:44;18.60;99.90
18101;DHT22;9177;49.156;8.142;2022-11-15T01:11:12;18.70;99.90
18101;DHT22;9177;49.156;8.142;2022-11-15T01:13:39;18.60;99.90
18101;DHT22;9177;49.156;8.142;2022-11-15T01:16:09;18.60;99.90
18101;DHT22;9177;49.156;8.142;2022-11-15T01:18:37;18.70;99.90
18101;DHT22;9177;49.156;8.142;2022-11-15T01:21:09;18.60;99.90
18101;DHT22;9177;49.156;8.142;2022-11-15T01:23:36;18.60;99.90
18101;DHT22;9177;49.156;8.142;2022-11-15T01:26:05;18.60;99.90
18101;DHT22;9177;49.156;8.142;2022-11-15T01:28:32;18.60;99.90
18101;DHT22;9177;49.156;8.142;2022-11-15T01:31:01;18.60;99.90
18101;DHT22;9177;49.156;8.142;2022-11-15T01:33:30;18.60;99.90
18101;DHT22;9177;49.156;8.142;2022-11-15T01:35:57;18.60;99.90
18101;DHT22;9177;49.156;8.142;2022-11-15T01:38:24;18.60;99.90
18101;DHT22;9177;49.156;8.142;2022-11-15T01:40:51;18.60;99.90
18101;DHT22;9177;49.156;8.142;2022-11-15T01:43:19;18.60;99.90
18101;DHT22;9177;49.156;8.142;2022-11-15T01:45:51;18.60;99.90
18101;DHT22;9177;49.156;8.142;2022-11-15T01:48:19;18.60;99.90
18101;DHT22;9177;49.156;8.142;2022-11-15T01:50:48;18.60;99.90
18101;DHT22;9177;49.156;8.142;2022-11-15T01:53:17;18.60;99.90
18101;DHT22;9177;49.156;8.142;2022-11-15T01:55:45;18.60;99.90
18101;DHT22;9177;49.156;8.142;2022-11-15T01:58:12;18.60;99.90
18101;DHT22;9177;49.156;8.142;2022-11-15T02:00:39;18.60;99.90
18101;DHT22;9177;49.156;8.142;2022-11-15T02:03:06;18.60;99.90
18101;DHT22;9177;49.156;8.142;2022-11-15T02:05:33;18.60;99.90
18101;DHT22;9177;49.156;8.142;2022-11-15T02:08:04;18.60;99.90
18101;DHT22;9177;49.156;8.142;2022-11-15T02:10:31;18.60;99.90
18101;DHT22;9177;49.156;8.142;2022-11-15T02:12:58;18.60;99.90
18101;DHT22;9177;49.156;8.142;2022-11-15T02:15:31;18.60;99.90
18101;DHT22;9177;49.156;8.142;2022-11-15T02:18:11;18.60;99.90
18101;DHT22;9177;49.156;8.142;2022-11-15T02:20:56;18.60;99.90
18101;DHT22;9177;49.156;8.142;2022-11-15T02:30:12;18.60;99.90
18101;DHT22;9177;49.156;8.142;2022-11-15T02:32:44;18.60;99.90
18101;DHT22;9177;49.156;8.142;2022-11-15T02:35:18;18.60;99.90
18101;DHT22;9177;49.156;8.142;2022-11-15T02:37:52;18.60;99.90
18101;DHT22;9177;49.156;8.142;2022-11-15T02:40:29;18.60;99.90
18101;DHT22;9177;49.156;8.142;2022-11-15T02:43:03;18.60;99.90
18101;DHT22;9177;49.156;8.142;2022-11-15T02:45:53;18.60;99.90
18101;DHT22;9177;49.156;8.142;2022-11-15T02:48:23;18.60;99.90
18101;DHT22;9177;49.156;8.142;2022-11-15T02:50:51;18.60;99.90
18101;DHT22;9177;49.156;8.142;2022-11-15T02:53:23;18.50;99.90
18101;DHT22;9177;49.156;8.142;2022-11-15T02:55:51;18.50;99.90
18101;DHT22;9177;49.156;8.142;2022-11-15T02:58:38;18.50;99.90
18101;DHT22;9177;49.156;8.142;2022-11-15T03:01:15;18.60;99.90
18101;DHT22;9177;49.156;8.142;2022-11-15T03:03:54;18.60;99.90
18101;DHT22;9177;49.156;8.142;2022-11-15T03:06:31;18.50;99.90
18101;DHT22;9177;49.156;8.142;2022-11-15T03:09:09;18.50;99.90
18101;DHT22;9177;49.156;8.142;2022-11-15T03:11:39;18.50;99.90
18101;DHT22;9177;49.156;8.142;2022-11-15T03:14:16;18.50;99.90
18101;DHT22;9177;49.156;8.142;2022-11-15T03:16:49;18.50;99.90
18101;DHT22;9177;49.156;8.142;2022-11-15T03:19:22;18.50;99.90
18101;DHT22;9177;49.156;8.142;2022-11-15T03:21:55;18.50;99.90
18101;DHT22;9177;49.156;8.142;2022-11-15T03:24:24;18.50;99.90
18101;DHT22;9177;49.156;8.142;2022-11-15T03:26:54;18.50;99.90
18101;DHT22;9177;49.156;8.142;2022-11-15T03:29:25;18.50;99.90
18101;DHT22;9177;49.156;8.142;2022-11-15T03:31:58;18.50;99.90
18101;DHT22;9177;49.156;8.142;2022-11-15T03:34:29;18.50;99.90
18101;DHT22;9177;49.156;8.142;2022-11-15T03:36:57;18.60;99.90
18101;DHT22;9177;49.156;8.142;2022-11-15T03:39:25;18.60;99.90
18101;DHT22;9177;49.156;8.142;2022-11-15T03:41:57;18.70;99.90
18101;DHT22;9177;49.156;8.142;2022-11-15T03:44:36;18.80;99.90
18101;DHT22;9177;49.156;8.142;2022-11-15T03:47:11;18.90;99.90
18101;DHT22;9177;49.156;8.142;2022-11-15T03:49:42;19.00;99.90
18101;DHT22;9177;49.156;8.142;2022-11-15T03:52:11;19.10;99.90
18101;DHT22;9177;49.156;8.142;2022-11-15T03:54:48;19.20;99.90
18101;DHT22;9177;49.156;8.142;2022-11-15T03:57:15;19.30;99.90
18101;DHT22;9177;49.156;8.142;2022-11-15T03:59:42;19.40;99.90
18101;DHT22;9177;49.156;8.142;2022-11-15T04:02:11;19.40;99.90
18101;DHT22;9177;49.156;8.142;2022-11-15T04:04:38;19.50;99.90
18101;DHT22;9177;49.156;8.142;2022-11-15T04:07:05;19.50;99.80
18101;DHT22;9177;49.156;8.142;2022-11-15T04:09:32;19.60;99.70
18101;DHT22;9177;49.156;8.142;2022-11-15T04:11:59;19.70;99.60
18101;DHT22;9177;49.156;8.142;2022-11-15T04:14:26;19.70;99.50
18101;DHT22;9177;49.156;8.142;2022-11-15T04:16:52;19.80;99.50
18101;DHT22;9177;49.156;8.142;2022-11-15T04:19:21;19.80;99.50
18101;DHT22;9177;49.156;8.142;2022-11-15T04:22:07;19.80;99.40
18101;DHT22;9177;49.156;8.142;2022-11-15T04:24:48;19.80;99.40
18101;DHT22;9177;49.156;8.142;2022-11-15T04:27:14;19.90;99.30
18101;DHT22;9177;49.156;8.142;2022-11-15T04:29:41;19.90;99.30
18101;DHT22;9177;49.156;8.142;2022-11-15T04:32:08;19.90;99.30
18101;DHT22;9177;49.156;8.142;2022-11-15T04:34:36;19.90;99.30
18101;DHT22;9177;49.156;8.142;2022-11-15T04:37:04;19.90;99.30
18101;DHT22;9177;49.156;8.142;2022-11-15T04:39:42;19.80;99.30
18101;DHT22;9177;49.156;8.142;2022-11-15T04:42:09;19.80;99.40
18101;DHT22;9177;49.156;8.142;2022-11-15T04:44:36;19.80;99.40
18101;DHT22;9177;49.156;8.142;2022-11-15T04:47:06;19.70;99.50
18101;DHT22;9177;49.156;8.142;2022-11-15T04:49:33;19.70;99.50
18101;DHT22;9177;49.156;8.142;2022-11-15T04:52:01;19.70;99.60
18101;DHT22;9177;49.156;8.142;2022-11-15T04:54:28;19.60;99.70
18101;DHT22;9177;49.156;8.142;2022-11-15T04:56:55;19.60;99.80
18101;DHT22;9177;49.156;8.142;2022-11-15T04:59:22;19.50;99.80
18101;DHT22;9177;49.156;8.142;2022-11-15T05:01:49;19.50;99.90
18101;DHT22;9177;49.156;8.142;2022-11-15T05:07:36;19.40;99.90
18101;DHT22;9177;49.156;8.142;2022-11-15T05:10:03;19.30;99.90
18101;DHT22;9177;49.156;8.142;2022-11-15T05:12:30;19.30;99.90
18101;DHT22;9177;49.156;8.142;2022-11-15T05:14:57;19.30;99.90
18101;DHT22;9177;49.156;8.142;2022-11-15T05:17:24;19.30;99.90
18101;DHT22;9177;49.156;8.142;2022-11-15T05:19:51;19.20;99.90
18101;DHT22;9177;49.156;8.142;2022-11-15T05:22:18;19.20;99.90
18101;DHT22;9177;49.156;8.142;2022-11-15T05:24:46;19.20;99.90
18101;DHT22;9177;49.156;8.142;2022-11-15T05:27:13;19.20;99.90
18101;DHT22;9177;49.156;8.142;2022-11-15T05:29:40;19.10;99.90
18101;DHT22;9177;49.156;8.142;2022-11-15T05:32:08;19.10;99.90
18101;DHT22;9177;49.156;8.142;2022-11-15T05:34:35;19.10;99.90
18101;DHT22;9177;49.156;8.142;2022-11-15T05:37:03;19.10;99.90
18101;DHT22;9177;49.156;8.142;2022-11-15T05:39:30;19.10;99.90
18101;DHT22;9177;49.156;8.142;2022-11-15T05:42:01;19.10;99.90
18101;DHT22;9177;49.156;8.142;2022-11-15T05:44:31;19.10;99.90
18101;DHT22;9177;49.156;8.142;2022-11-15T05:46:58;19.10;99.90
18101;DHT22;9177;49.156;8.142;2022-11-15T05:49:29;19.10;99.90
18101;DHT22;9177;49.156;8.142;2022-11-15T05:51:57;19.10;99.90
18101;DHT22;9177;49.156;8.142;2022-11-15T05:54:25;19.10;99.90
18101;DHT22;9177;49.156;8.142;2022-11-15T05:56:52;19.10;99.90
18101;DHT22;9177;49.156;8.142;2022-11-15T05:59:20;19.10;99.90
18101;DHT22;9177;49.156;8.142;2022-11-15T06:01:48;19.10;99.90
18101;DHT22;9177;49.156;8.142;2022-11-15T06:04:15;19.10;99.90
18101;DHT22;9177;49.156;8.142;2022-11-15T06:06:42;19.10;99.90
18101;DHT22;9177;49.156;8.142;2022-11-15T06:09:09;19.10;99.90
18101;DHT22;9177;49.156;8.142;2022-11-15T06:11:36;19.10;99.90
18101;DHT22;9177;49.156;8.142;2022-11-15T06:14:02;19.10;99.90
18101;DHT22;9177;49.156;8.142;2022-11-15T06:16:31;19.10;99.90
18101;DHT22;9177;49.156;8.142;2022-11-15T06:18:58;19.10;99.90
18101;DHT22;9177;49.156;8.142;2022-11-15T06:21:25;19.10;99.90
18101;DHT22;9177;49.156;8.142;2022-11-15T06:23:54;19.10;99.90
18101;DHT22;9177;49.156;8.142;2022-11-15T06:26:21;19.10;99.90
18101;DHT22;9177;49.156;8.142;2022-11-15T06:28:48;19.10;99.90
18101;DHT22;9177;49.156;8.142;2022-11-15T06:31:15;19.10;99.90
18101;DHT22;9177;49.156;8.142;2022-11-15T06:33:43;19.10;99.90
18101;DHT22;9177;49.156;8.142;2022-11-15T06:36:12;19.10;99.90
18101;DHT22;9177;49.156;8.142;2022-11-15T06:38:41;19.10;99.90
18101;DHT22;9177;49.156;8.142;2022-11-15T06:41:09;19.10;99.90
18101;DHT22;9177;49.156;8.142;2022-11-15T06:43:38;19.10;99.90
18101;DHT22;9177;49.156;8.142;2022-11-15T06:46:05;19.10;99.90
18101;DHT22;9177;49.156;8.142;2022-11-15T06:48:33;19.10;99.90
18101;DHT22;9177;49.156;8.142;2022-11-15T06:51:04;19.10;99.90
18101;DHT22;9177;49.156;8.142;2022-11-15T06:53:31;19.10;99.90
18101;DHT22;9177;49.156;8.142;2022-11-15T06:55:59;19.10;99.90
18101;DHT22;9177;49.156;8.142;2022-11-15T06:58:27;19.10;99.90
18101;DHT22;9177;49.156;8.142;2022-11-15T07:00:57;19.10;99.90
18101;DHT22;9177;49.156;8.142;2022-11-15T07:03:24;19.10;99.90
18101;DHT22;9177;49.156;8.142;2022-11-15T07:05:52;19.10;99.90
18101;DHT22;9177;49.156;8.142;2022-11-15T07:08:22;19.10;99.90
18101;DHT22;9177;49.156;8.142;2022-11-15T07:10:54;19.10;99.90
18101;DHT22;9177;49.156;8.142;2022-11-15T07:13:24;19.10;99.90
18101;DHT22;9177;49.156;8.142;2022-11-15T07:15:51;19.10;99.90
18101;DHT22;9177;49.156;8.142;2022-11-15T07:18:18;19.10;99.90
18101;DHT22;9177;49.156;8.142;2022-11-15T07:20:45;19.10;99.90
18101;DHT22;9177;49.156;8.142;2022-11-15T07:23:12;19.10;99.90
18101;DHT22;9177;49.156;8.142;2022-11-15T07:25:40;19.10;99.90
18101;DHT22;9177;49.156;8.142;2022-11-15T07:28:08;19.10;99.90
18101;DHT22;9177;49.156;8.142;2022-11-15T07:30:35;19.10;99.90
18101;DHT22;9177;49.156;8.142;2022-11-15T07:33:01;19.10;99.90
18101;DHT22;9177;49.156;8.142;2022-11-15T07:35:29;19.10;99.90
18101;DHT22;9177;49.156;8.142;2022-11-15T07:37:59;19.10;99.90
18101;DHT22;9177;49.156;8.142;2022-11-15T07:40:31;19.10;99.90
18101;DHT22;9177;49.156;8.142;2022-11-15T07:43:01;19.10;99.90
18101;DHT22;9177;49.156;8.142;2022-11-15T07:45:28;19.10;99.90
18101;DHT22;9177;49.156;8.142;2022-11-15T07:47:55;19.10;99.90
18101;DHT22;9177;49.156;8.142;2022-11-15T07:50:23;19.10;99.90
18101;DHT22;9177;49.156;8.142;2022-11-15T07:52:53;19.10;99.90
18101;DHT22;9177;49.156;8.142;2022-11-15T07:55:21;19.10;99.90
18101;DHT22;9177;49.156;8.142;2022-11-15T07:57:48;19.10;99.90
18101;DHT22;9177;49.156;8.142;2022-11-15T08:00:17;19.10;99.90
18101;DHT22;9177;49.156;8.142;2022-11-15T08:02:45;19.10;99.90
18101;DHT22;9177;49.156;8.142;2022-11-15T08:05:12;19.10;99.90
18101;DHT22;9177;49.156;8.142;2022-11-15T08:07:39;19.10;99.90
18101;DHT22;9177;49.156;8.142;2022-11-15T08:10:07;19.10;99.90
18101;DHT22;9177;49.156;8.142;2022-11-15T08:12:34;19.10;99.90
18101;DHT22;9177;49.156;8.142;2022-11-15T08:15:01;19.10;99.90
18101;DHT22;9177;49.156;8.142;2022-11-15T08:17:30;19.10;99.90
18101;DHT22;9177;49.156;8.142;2022-11-15T08:19:59;19.10;99.90
18101;DHT22;9177;49.156;8.142;2022-11-15T08:22:26;19.10;99.90
18101;DHT22;9177;49.156;8.142;2022-11-15T08:24:53;19.10;99.90
18101;DHT22;9177;49.156;8.142;2022-11-15T08:27:19;19.10;99.90
18101;DHT22;9177;49.156;8.142;2022-11-15T08:29:48;19.10;99.90
18101;DHT22;9177;49.156;8.142;2022-11-15T08:32:16;19.10;99.90
18101;DHT22;9177;49.156;8.142;2022-11-15T08:34:44;19.10;99.90
18101;DHT22;9177;49.156;8.142;2022-11-15T08:37:12;19.10;99.90
18101;DHT22;9177;49.156;8.142;2022-11-15T08:39:39;19.10;99.90
18101;DHT22;9177;49.156;8.142;2022-11-15T08:42:05;19.10;99.90
18101;DHT22;9177;49.156;8.142;2022-11-15T08:44:32;19.10;99.90
18101;DHT22;9177;49.156;8.142;2022-11-15T08:46:59;19.10;99.90
18101;DHT22;9177;49.156;8.142;2022-11-15T08:49:27;19.10;99.90
18101;DHT22;9177;49.156;8.142;2022-11-15T08:51:55;19.10;99.90
18101;DHT22;9177;49.156;8.142;2022-11-15T08:54:25;19.10;99.90
18101;DHT22;9177;49.156;8.142;2022-11-15T08:56:52;19.20;99.90
18101;DHT22;9177;49.156;8.142;2022-11-15T08:59:18;19.20;99.90
18101;DHT22;9177;49.156;8.142;2022-11-15T09:01:46;19.20;99.90
18101;DHT22;9177;49.156;8.142;2022-11-15T09:04:12;19.20;99.90
18101;DHT22;9177;49.156;8.142;2022-11-15T09:06:39;19.20;99.90
18101;DHT22;9177;49.156;8.142;2022-11-15T09:09:08;19.20;99.90
18101;DHT22;9177;49.156;8.142;2022-11-15T09:11:35;19.20;99.90
18101;DHT22;9177;49.156;8.142;2022-11-15T09:14:02;19.20;99.90
18101;DHT22;9177;49.156;8.142;2022-11-15T09:16:30;19.20;99.90
18101;DHT22;9177;49.156;8.142;2022-11-15T09:18:57;19.20;99.90
18101;DHT22;9177;49.156;8.142;2022-11-15T09:21:28;19.20;99.90
18101;DHT22;9177;49.156;8.142;2022-11-15T09:23:55;19.20;99.90
18101;DHT22;9177;49.156;8.142;2022-11-15T09:26:24;19.20;99.90
18101;DHT22;9177;49.156;8.142;2022-11-15T09:28:51;19.20;99.90
18101;DHT22;9177;49.156;8.142;2022-11-15T09:31:18;19.20;99.90
18101;DHT22;9177;49.156;8.142;2022-11-15T09:33:48;19.20;99.90
18101;DHT22;9177;49.156;8.142;2022-11-15T09:36:14;19.20;99.90
18101;DHT22;9177;49.156;8.142;2022-11-15T09:38:42;19.30;99.90
18101;DHT22;9177;49.156;8.142;2022-11-15T09:41:34;19.30;99.90
18101;DHT22;9177;49.156;8.142;2022-11-15T09:44:19;19.30;99.90
18101;DHT22;9177;49.156;8.142;2022-11-15T09:46:54;19.30;99.90
18101;DHT22;9177;49.156;8.142;2022-11-15T09:49:24;19.30;99.90
18101;DHT22;9177;49.156;8.142;2022-11-15T09:51:56;19.30;99.90
18101;DHT22;9177;49.156;8.142;2022-11-15T09:54:28;19.30;99.90
18101;DHT22;9177;49.156;8.142;2022-11-15T09:57:03;19.30;99.90
18101;DHT22;9177;49.156;8.142;2022-11-15T10:00:02;19.30;99.90
18101;DHT22;9177;49.156;8.142;2022-11-15T10:02:46;19.30;99.90
18101;DHT22;9177;49.156;8.142;2022-11-15T10:05:20;19.30;99.90
18101;DHT22;9177;49.156;8.142;2022-11-15T10:07:54;19.30;99.90
18101;DHT22;9177;49.156;8.142;2022-11-15T10:10:26;19.30;99.90
18101;DHT22;9177;49.156;8.142;2022-11-15T10:12:56;19.30;99.90
18101;DHT22;9177;49.156;8.142;2022-11-15T10:15:24;19.30;99.90
18101;DHT22;9177;49.156;8.142;2022-11-15T10:18:13;19.40;99.90
18101;DHT22;9177;49.156;8.142;2022-11-15T10:20:54;19.40;99.90
18101;DHT22;9177;49.156;8.142;2022-11-15T10:23:23;19.40;99.90
18101;DHT22;9177;49.156;8.142;2022-11-15T10:25:53;19.30;99.90
18101;DHT22;9177;49.156;8.142;2022-11-15T10:28:26;19.40;99.90
18101;DHT22;9177;49.156;8.142;2022-11-15T10:30:56;19.40;99.90
18101;DHT22;9177;49.156;8.142;2022-11-15T10:33:31;19.40;99.90
18101;DHT22;9177;49.156;8.142;2022-11-15T10:36:19;19.30;99.90
18101;DHT22;9177;49.156;8.142;2022-11-15T10:38:57;19.30;99.90
18101;DHT22;9177;49.156;8.142;2022-11-15T10:41:35;19.40;99.90
18101;DHT22;9177;49.156;8.142;2022-11-15T10:47:31;19.30;99.90
18101;DHT22;9177;49.156;8.142;2022-11-15T10:50:04;19.30;99.90
18101;DHT22;9177;49.156;8.142;2022-11-15T10:52:33;19.30;99.90
18101;DHT22;9177;49.156;8.142;2022-11-15T10:55:05;19.40;99.90
18101;DHT22;9177;49.156;8.142;2022-11-15T10:57:37;19.40;99.90
18101;DHT22;9177;49.156;8.142;2022-11-15T11:00:12;19.40;99.90
18101;DHT22;9177;49.156;8.142;2022-11-15T11:02:58;19.40;99.90
18101;DHT22;9177;49.156;8.142;2022-11-15T11:05:27;19.40;99.90
18101;DHT22;9177;49.156;8.142;2022-11-15T11:07:57;19.40;99.90
18101;DHT22;9177;49.156;8.142;2022-11-15T11:10:25;19.50;99.90
18101;DHT22;9177;49.156;8.142;2022-11-15T11:12:52;19.50;99.90
18101;DHT22;9177;49.156;8.142;2022-11-15T11:15:23;19.40;99.90
18101;DHT22;9177;49.156;8.142;2022-11-15T11:18:00;19.50;99.90
18101;DHT22;9177;49.156;8.142;2022-11-15T11:20:32;19.50;99.90
18101;DHT22;9177;49.156;8.142;2022-11-15T11:23:25;19.50;99.90
18101;DHT22;9177;49.156;8.142;2022-11-15T11:26:10;19.50;99.90
18101;DHT22;9177;49.156;8.142;2022-11-15T11:28:45;19.50;99.90
18101;DHT22;9177;49.156;8.142;2022-11-15T11:31:24;19.50;99.90
18101;DHT22;9177;49.156;8.142;2022-11-15T11:34:02;19.50;99.90
18101;DHT22;9177;49.156;8.142;2022-11-15T11:36:38;19.50;99.90
18101;DHT22;9177;49.156;8.142;2022-11-15T11:39:19;19.50;99.90
18101;DHT22;9177;49.156;8.142;2022-11-15T11:41:57;19.50;99.90
18101;DHT22;9177;49.156;8.142;2022-11-15T11:44:34;19.50;99.90
18101;DHT22;9177;49.156;8.142;2022-11-15T11:47:09;19.50;99.90
18101;DHT22;9177;49.156;8.142;2022-11-15T11:49:43;19.50;99.90
18101;DHT22;9177;49.156;8.142;2022-11-15T11:52:14;19.50;99.90
18101;DHT22;9177;49.156;8.142;2022-11-15T11:54:48;19.50;99.90
18101;DHT22;9177;49.156;8.142;2022-11-15T11:57:28;19.40;99.90
18101;DHT22;9177;49.156;8.142;2022-11-15T12:00:00;19.40;99.90
18101;DHT22;9177;49.156;8.142;2022-11-15T12:02:34;19.50;99.90
18101;DHT22;9177;49.156;8.142;2022-11-15T12:05:10;19.40;99.90
18101;DHT22;9177;49.156;8.142;2022-11-15T12:07:39;19.40;99.90
18101;DHT22;9177;49.156;8.142;2022-11-15T12:10:17;19.40;99.90
18101;DHT22;9177;49.156;8.142;2022-11-15T12:12:51;19.40;99.90
18101;DHT22;9177;49.156;8.142;2022-11-15T12:15:22;19.50;99.90
18101;DHT22;9177;49.156;8.142;2022-11-15T12:17:52;19.50;99.90
18101;DHT22;9177;49.156;8.142;2022-11-15T12:20:23;19.50;99.90
18101;DHT22;9177;49.156;8.142;2022-11-15T12:22:58;19.50;99.90
18101;DHT22;9177;49.156;8.142;2022-11-15T12:25:29;19.50;99.90
18101;DHT22;9177;49.156;8.142;2022-11-15T12:28:00;19.60;99.90
18101;DHT22;9177;49.156;8.142;2022-11-15T12:30:39;19.60;99.90
18101;DHT22;9177;49.156;8.142;2022-11-15T12:33:36;19.60;99.90
18101;DHT22;9177;49.156;8.142;2022-11-15T12:36:05;19.70;99.90
18101;DHT22;9177;49.156;8.142;2022-11-15T12:38:55;19.70;99.90
18101;DHT22;9177;49.156;8.142;2022-11-15T12:41:24;19.70;99.90
18101;DHT22;9177;49.156;8.142;2022-11-15T12:43:51;19.70;99.90
18101;DHT22;9177;49.156;8.142;2022-11-15T12:49:43;19.90;99.90
18101;DHT22;9177;49.156;8.142;2022-11-15T12:52:16;20.20;99.90
18101;DHT22;9177;49.156;8.142;2022-11-15T12:54:57;20.10;99.90
18101;DHT22;9177;49.156;8.142;2022-11-15T12:57:46;20.00;99.90
18101;DHT22;9177;49.156;8.142;2022-11-15T13:00:43;19.90;99.90
18101;DHT22;9177;49.156;8.142;2022-11-15T13:03:43;19.70;99.90
18101;DHT22;9177;49.156;8.142;2022-11-15T13:06:42;19.70;99.90
18101;DHT22;9177;49.156;8.142;2022-11-15T13:12:53;19.60;99.90
18101;DHT22;9177;49.156;8.142;2022-11-15T13:15:35;19.60;99.90
18101;DHT22;9177;49.156;8.142;2022-11-15T13:18:34;19.60;99.90
18101;DHT22;9177;49.156;8.142;2022-11-15T13:21:20;19.60;99.90
18101;DHT22;9177;49.156;8.142;2022-11-15T13:24:12;19.60;99.90
18101;DHT22;9177;49.156;8.142;2022-11-15T13:26:41;19.60;99.90
18101;DHT22;9177;49.156;8.142;2022-11-15T13:29:17;19.60;99.90
18101;DHT22;9177;49.156;8.142;2022-11-15T13:31:45;19.60;99.90
18101;DHT22;9177;49.156;8.142;2022-11-15T13:34:25;19.60;99.90
18101;DHT22;9177;49.156;8.142;2022-11-15T13:36:53;19.60;99.90
18101;DHT22;9177;49.156;8.142;2022-11-15T13:39:28;19.60;99.90
18101;DHT22;9177;49.156;8.142;2022-11-15T13:41:56;19.60;99.90
18101;DHT22;9177;49.156;8.142;2022-11-15T13:44:25;19.60;99.90
18101;DHT22;9177;49.156;8.142;2022-11-15T13:47:04;19.60;99.90
18101;DHT22;9177;49.156;8.142;2022-11-15T13:49:33;19.60;99.90
18101;DHT22;9177;49.156;8.142;2022-11-15T13:52:01;19.60;99.90
18101;DHT22;9177;49.156;8.142;2022-11-15T13:54:33;19.60;99.90
18101;DHT22;9177;49.156;8.142;2022-11-15T13:57:04;19.60;99.90
18101;DHT22;9177;49.156;8.142;2022-11-15T13:59:34;19.60;99.90
18101;DHT22;9177;49.156;8.142;2022-11-15T14:02:11;19.60;99.90
18101;DHT22;9177;49.156;8.142;2022-11-15T14:04:46;19.60;99.90
18101;DHT22;9177;49.156;8.142;2022-11-15T14:07:17;19.60;99.90
18101;DHT22;9177;49.156;8.142;2022-11-15T14:09:46;19.60;99.90
18101;DHT22;9177;49.156;8.142;2022-11-15T14:12:29;19.60;99.90
18101;DHT22;9177;49.156;8.142;2022-11-15T14:14:57;19.60;99.90
18101;DHT22;9177;49.156;8.142;2022-11-15T14:17:37;19.60;99.90
18101;DHT22;9177;49.156;8.142;2022-11-15T14:20:27;19.70;99.90
18101;DHT22;9177;49.156;8.142;2022-11-15T14:22:57;19.70;99.90
18101;DHT22;9177;49.156;8.142;2022-11-15T14:25:27;19.60;99.90
18101;DHT22;9177;49.156;8.142;2022-11-15T14:28:16;19.60;99.90
18101;DHT22;9177;49.156;8.142;2022-11-15T14:30:55;19.60;99.90
18101;DHT22;9177;49.156;8.142;2022-11-15T14:33:29;19.50;99.90
18101;DHT22;9177;49.156;8.142;2022-11-15T14:35:57;19.60;99.90
18101;DHT22;9177;49.156;8.142;2022-11-15T14:38:25;19.60;99.90
18101;DHT22;9177;49.156;8.142;2022-11-15T14:40:54;19.50;99.90
18101;DHT22;9177;49.156;8.142;2022-11-15T14:43:22;19.50;99.90
18101;DHT22;9177;49.156;8.142;2022-11-15T14:45:49;19.50;99.90
18101;DHT22;9177;49.156;8.142;2022-11-15T14:48:16;19.50;99.90
18101;DHT22;9177;49.156;8.142;2022-11-15T14:50:43;19.50;99.90
18101;DHT22;9177;49.156;8.142;2022-11-15T14:53:12;19.50;99.90
18101;DHT22;9177;49.156;8.142;2022-11-15T14:55:41;19.50;99.90
18101;DHT22;9177;49.156;8.142;2022-11-15T14:58:09;19.50;99.90
18101;DHT22;9177;49.156;8.142;2022-11-15T15:00:38;19.50;99.90
18101;DHT22;9177;49.156;8.142;2022-11-15T15:03:05;19.50;99.90
18101;DHT22;9177;49.156;8.142;2022-11-15T15:05:34;19.50;99.90
18101;DHT22;9177;49.156;8.142;2022-11-15T15:08:02;19.50;99.90
18101;DHT22;9177;49.156;8.142;2022-11-15T15:10:32;19.50;99.90
18101;DHT22;9177;49.156;8.142;2022-11-15T15:13:00;19.50;99.90
18101;DHT22;9177;49.156;8.142;2022-11-15T15:15:32;19.50;99.90
18101;DHT22;9177;49.156;8.142;2022-11-15T15:18:00;19.50;99.90
18101;DHT22;9177;49.156;8.142;2022-11-15T15:20:29;19.50;99.90
18101;DHT22;9177;49.156;8.142;2022-11-15T15:22:55;19.50;99.90
18101;DHT22;9177;49.156;8.142;2022-11-15T15:25:24;19.50;99.90
18101;DHT22;9177;49.156;8.142;2022-11-15T15:27:53;19.50;99.90
18101;DHT22;9177;49.156;8.142;2022-11-15T15:30:20;19.40;99.90
18101;DHT22;9177;49.156;8.142;2022-11-15T15:32:49;19.50;99.90
18101;DHT22;9177;49.156;8.142;2022-11-15T15:35:17;19.50;99.90
18101;DHT22;9177;49.156;8.142;2022-11-15T15:37:45;19.50;99.90
18101;DHT22;9177;49.156;8.142;2022-11-15T15:40:16;19.50;99.90
18101;DHT22;9177;49.156;8.142;2022-11-15T15:42:43;19.50;99.90
18101;DHT22;9177;49.156;8.142;2022-11-15T15:45:11;19.50;99.90
18101;DHT22;9177;49.156;8.142;2022-11-15T15:47:38;19.50;99.90
18101;DHT22;9177;49.156;8.142;2022-11-15T15:50:17;19.50;99.90
18101;DHT22;9177;49.156;8.142;2022-11-15T15:52:46;19.50;99.90
18101;DHT22;9177;49.156;8.142;2022-11-15T15:55:13;19.50;99.90
18101;DHT22;9177;49.156;8.142;2022-11-15T15:57:40;19.50;99.90
18101;DHT22;9177;49.156;8.142;2022-11-15T16:00:09;19.50;99.90
18101;DHT22;9177;49.156;8.142;2022-11-15T16:02:36;19.50;99.90
18101;DHT22;9177;49.156;8.142;2022-11-15T16:05:04;19.50;99.90
18101;DHT22;9177;49.156;8.142;2022-11-15T16:07:32;19.50;99.90
18101;DHT22;9177;49.156;8.142;2022-11-15T16:09:59;19.50;99.90
18101;DHT22;9177;49.156;8.142;2022-11-15T16:12:26;19.50;99.90
18101;DHT22;9177;49.156;8.142;2022-11-15T16:14:53;19.50;99.90
18101;DHT22;9177;49.156;8.142;2022-11-15T16:17:23;19.50;99.90
18101;DHT22;9177;49.156;8.142;2022-11-15T16:19:54;19.50;99.90
18101;DHT22;9177;49.156;8.142;2022-11-15T16:22:21;19.50;99.90
18101;DHT22;9177;49.156;8.142;2022-11-15T16:24:50;19.40;99.90
18101;DHT22;9177;49.156;8.142;2022-11-15T16:27:18;19.40;99.90